sensor_id;sensor_type;location;lat;lon;timestamp;P1;durP1;ratioP1;P2;durP2;ratioP2
13493;SDS011;6819;50.886;4.332;2022-12-18T08:49:02;12.32;;;5.15;;
13493;SDS011;6819;50.886;4.332;2022-12-18T08:51:28;11.02;;;5.43;;
13493;SDS011;6819;50.886;4.332;2022-12-18T08:53:54;10.45;;;4.30;;
13493;SDS011;6819;50.886;4.332;2022-12-18T08:56:20;8.50;;;4.40;;
13493;SDS011;6819;50.886;4.332;2022-12-18T08:58:46;8.93;;;4.88;;
13493;SDS011;6819;50.886;4.332;2022-12-18T09:01:12;12.88;;;5.45;;
13493;SDS011;6819;50.886;4.332;2022-12-18T09:03:39;12.50;;;5.70;;
13493;SDS011;6819;50.886;4.332;2022-12-18T09:06:05;8.00;;;4.45;;
13493;SDS011;6819;50.886;4.332;2022-12-18T09:08:31;10.15;;;4.82;;
13493;SDS011;6819;50.886;4.332;2022-12-18T09:10:57;15.45;;;5.53;;
13493;SDS011;6819;50.886;4.332;2022-12-18T09:13:24;11.40;;;5.60;;
13493;SDS011;6819;50.886;4.332;2022-12-18T09:15:51;10.77;;;5.63;;
13493;SDS011;6819;50.886;4.332;2022-12-18T09:18:18;12.50;;;5.40;;
13493;SDS011;6819;50.886;4.332;2022-12-18T09:20:45;8.23;;;4.38;;
13493;SDS011;6819;50.886;4.332;2022-12-18T09:23:11;12.40;;;5.60;;
13493;SDS011;6819;50.886;4.332;2022-12-18T09:25:38;8.45;;;4.68;;
13493;SDS011;6819;50.886;4.332;2022-12-18T09:28:06;9.35;;;4.75;;
13493;SDS011;6819;50.886;4.332;2022-12-18T09:30:36;11.80;;;5.32;;
13493;SDS011;6819;50.886;4.332;2022-12-18T09:33:03;12.13;;;4.45;;
13493;SDS011;6819;50.886;4.332;2022-12-18T09:35:29;9.10;;;4.43;;
13493;SDS011;6819;50.886;4.332;2022-12-18T09:37:55;8.63;;;4.93;;
13493;SDS011;6819;50.886;4.332;2022-12-18T09:40:22;9.60;;;4.63;;
13493;SDS011;6819;50.886;4.332;2022-12-18T09:42:51;11.55;;;5.75;;
13493;SDS011;6819;50.886;4.332;2022-12-18T09:45:19;11.50;;;5.13;;
13493;SDS011;6819;50.886;4.332;2022-12-18T09:47:45;14.68;;;5.60;;
13493;SDS011;6819;50.886;4.332;2022-12-18T09:50:24;13.38;;;6.20;;
13493;SDS011;6819;50.886;4.332;2022-12-18T09:52:51;10.85;;;5.03;;
13493;SDS011;6819;50.886;4.332;2022-12-18T09:57:48;12.65;;;5.85;;
13493;SDS011;6819;50.886;4.332;2022-12-18T10:00:16;14.15;;;6.15;;
13493;SDS011;6819;50.886;4.332;2022-12-18T10:02:43;12.30;;;6.22;;
13493;SDS011;6819;50.886;4.332;2022-12-18T10:05:11;11.85;;;5.72;;
13493;SDS011;6819;50.886;4.332;2022-12-18T10:10:31;11.88;;;5.78;;
13493;SDS011;6819;50.886;4.332;2022-12-18T10:20:54;11.23;;;5.20;;
13493;SDS011;6819;50.886;4.332;2022-12-18T10:23:26;9.90;;;5.50;;
13493;SDS011;6819;50.886;4.332;2022-12-18T10:26:02;12.02;;;5.60;;
13493;SDS011;6819;50.886;4.332;2022-12-18T10:28:32;14.52;;;6.38;;
13493;SDS011;6819;50.886;4.332;2022-12-18T10:30:59;11.50;;;5.65;;
13493;SDS011;6819;50.886;4.332;2022-12-18T10:33:28;14.05;;;5.53;;
13493;SDS011;6819;50.886;4.332;2022-12-18T10:35:54;14.73;;;6.40;;
13493;SDS011;6819;50.886;4.332;2022-12-18T10:38:22;13.32;;;5.93;;
13493;SDS011;6819;50.886;4.332;2022-12-18T10:43:14;12.18;;;6.22;;
13493;SDS011;6819;50.886;4.332;2022-12-18T10:45:41;11.60;;;6.30;;
13493;SDS011;6819;50.886;4.332;2022-12-18T10:48:20;12.18;;;6.78;;
13493;SDS011;6819;50.886;4.332;2022-12-18T10:50:47;12.55;;;6.43;;
13493;SDS011;6819;50.886;4.332;2022-12-18T10:53:17;10.48;;;6.07;;
13493;SDS011;6819;50.886;4.332;2022-12-18T10:55:44;13.00;;;6.88;;
13493;SDS011;6819;50.886;4.332;2022-12-18T10:58:25;9.85;;;5.88;;
13493;SDS011;6819;50.886;4.332;2022-12-18T11:06:21;15.38;;;7.32;;
13493;SDS011;6819;50.886;4.332;2022-12-18T11:11:24;18.38;;;8.32;;
13493;SDS011;6819;50.886;4.332;2022-12-18T11:13:54;14.07;;;7.30;;
13493;SDS011;6819;50.886;4.332;2022-12-18T11:16:22;15.55;;;8.25;;
13493;SDS011;6819;50.886;4.332;2022-12-18T11:18:48;16.08;;;7.40;;
13493;SDS011;6819;50.886;4.332;2022-12-18T11:21:14;13.77;;;7.55;;
13493;SDS011;6819;50.886;4.332;2022-12-18T11:23:51;19.55;;;9.05;;
13493;SDS011;6819;50.886;4.332;2022-12-18T11:26:17;16.15;;;7.50;;
13493;SDS011;6819;50.886;4.332;2022-12-18T11:28:46;14.50;;;7.70;;
13493;SDS011;6819;50.886;4.332;2022-12-18T11:36:33;11.45;;;6.55;;
13493;SDS011;6819;50.886;4.332;2022-12-18T11:39:01;14.80;;;6.70;;
13493;SDS011;6819;50.886;4.332;2022-12-18T11:41:30;15.13;;;6.97;;
13493;SDS011;6819;50.886;4.332;2022-12-18T11:44:24;14.15;;;7.10;;
13493;SDS011;6819;50.886;4.332;2022-12-18T11:46:55;14.27;;;7.25;;
13493;SDS011;6819;50.886;4.332;2022-12-18T11:49:24;19.65;;;6.57;;
13493;SDS011;6819;50.886;4.332;2022-12-18T11:52:02;13.57;;;6.55;;
13493;SDS011;6819;50.886;4.332;2022-12-18T11:54:30;14.77;;;6.57;;
13493;SDS011;6819;50.886;4.332;2022-12-18T11:56:58;14.02;;;6.78;;
13493;SDS011;6819;50.886;4.332;2022-12-18T12:07:25;22.25;;;7.03;;
13493;SDS011;6819;50.886;4.332;2022-12-18T12:09:59;15.20;;;6.95;;
13493;SDS011;6819;50.886;4.332;2022-12-18T12:15:06;24.63;;;12.95;;
13493;SDS011;6819;50.886;4.332;2022-12-18T12:17:43;19.10;;;9.02;;
13493;SDS011;6819;50.886;4.332;2022-12-18T12:22:57;16.88;;;7.55;;
13493;SDS011;6819;50.886;4.332;2022-12-18T12:25:36;14.30;;;7.63;;
13493;SDS011;6819;50.886;4.332;2022-12-18T12:38:43;18.45;;;7.32;;
13493;SDS011;6819;50.886;4.332;2022-12-18T12:41:12;17.33;;;7.78;;
13493;SDS011;6819;50.886;4.332;2022-12-18T12:44:00;17.42;;;7.05;;
13493;SDS011;6819;50.886;4.332;2022-12-18T12:46:27;15.02;;;7.55;;
13493;SDS011;6819;50.886;4.332;2022-12-18T12:48:56;18.58;;;8.65;;
13493;SDS011;6819;50.886;4.332;2022-12-18T12:51:23;18.80;;;9.13;;
13493;SDS011;6819;50.886;4.332;2022-12-18T12:53:50;16.73;;;8.52;;
13493;SDS011;6819;50.886;4.332;2022-12-18T12:56:18;18.27;;;7.72;;
13493;SDS011;6819;50.886;4.332;2022-12-18T12:58:46;23.67;;;8.63;;
13493;SDS011;6819;50.886;4.332;2022-12-18T13:01:36;22.10;;;7.93;;
13493;SDS011;6819;50.886;4.332;2022-12-18T13:04:08;20.10;;;8.07;;
13493;SDS011;6819;50.886;4.332;2022-12-18T13:06:59;17.08;;;8.27;;
13493;SDS011;6819;50.886;4.332;2022-12-18T13:09:31;19.27;;;8.18;;
13493;SDS011;6819;50.886;4.332;2022-12-18T13:12:01;14.25;;;8.13;;
13493;SDS011;6819;50.886;4.332;2022-12-18T13:14:46;20.30;;;9.07;;
13493;SDS011;6819;50.886;4.332;2022-12-18T13:19:47;18.13;;;8.38;;
13493;SDS011;6819;50.886;4.332;2022-12-18T13:22:34;23.10;;;8.00;;
13493;SDS011;6819;50.886;4.332;2022-12-18T13:25:00;20.40;;;8.25;;
13493;SDS011;6819;50.886;4.332;2022-12-18T13:36:03;26.52;;;9.75;;
13493;SDS011;6819;50.886;4.332;2022-12-18T13:40:57;24.25;;;10.38;;
13493;SDS011;6819;50.886;4.332;2022-12-18T13:45:59;20.38;;;8.73;;
13493;SDS011;6819;50.886;4.332;2022-12-18T13:48:26;26.48;;;10.45;;
13493;SDS011;6819;50.886;4.332;2022-12-18T13:50:59;21.13;;;8.98;;
13493;SDS011;6819;50.886;4.332;2022-12-18T13:53:28;20.60;;;9.52;;
13493;SDS011;6819;50.886;4.332;2022-12-18T13:55:55;20.00;;;9.00;;
13493;SDS011;6819;50.886;4.332;2022-12-18T13:58:22;23.58;;;8.45;;
13493;SDS011;6819;50.886;4.332;2022-12-18T14:00:48;21.27;;;10.13;;
13493;SDS011;6819;50.886;4.332;2022-12-18T14:03:24;24.55;;;10.43;;
13493;SDS011;6819;50.886;4.332;2022-12-18T14:05:54;24.27;;;9.60;;
13493;SDS011;6819;50.886;4.332;2022-12-18T14:08:21;28.60;;;9.50;;
13493;SDS011;6819;50.886;4.332;2022-12-18T14:10:51;23.20;;;9.60;;
13493;SDS011;6819;50.886;4.332;2022-12-18T14:13:28;22.25;;;10.18;;
13493;SDS011;6819;50.886;4.332;2022-12-18T14:15:54;22.13;;;9.55;;
13493;SDS011;6819;50.886;4.332;2022-12-18T14:18:25;20.77;;;9.45;;
13493;SDS011;6819;50.886;4.332;2022-12-18T14:20:53;23.35;;;9.73;;
13493;SDS011;6819;50.886;4.332;2022-12-18T14:23:36;27.90;;;10.15;;
13493;SDS011;6819;50.886;4.332;2022-12-18T14:26:03;26.15;;;10.60;;
13493;SDS011;6819;50.886;4.332;2022-12-18T14:28:29;24.73;;;10.85;;
13493;SDS011;6819;50.886;4.332;2022-12-18T14:30:56;22.65;;;10.68;;
13493;SDS011;6819;50.886;4.332;2022-12-18T14:33:23;22.60;;;10.38;;
13493;SDS011;6819;50.886;4.332;2022-12-18T14:38:23;33.28;;;11.68;;
13493;SDS011;6819;50.886;4.332;2022-12-18T14:40:56;31.35;;;11.18;;
13493;SDS011;6819;50.886;4.332;2022-12-18T14:43:23;25.73;;;10.77;;
13493;SDS011;6819;50.886;4.332;2022-12-18T14:45:49;26.45;;;11.30;;
13493;SDS011;6819;50.886;4.332;2022-12-18T14:51:01;26.02;;;10.77;;
13493;SDS011;6819;50.886;4.332;2022-12-18T14:55:56;29.50;;;13.32;;
13493;SDS011;6819;50.886;4.332;2022-12-18T14:58:22;21.85;;;10.35;;
13493;SDS011;6819;50.886;4.332;2022-12-18T15:00:48;22.67;;;10.63;;
13493;SDS011;6819;50.886;4.332;2022-12-18T15:03:18;27.90;;;10.73;;
13493;SDS011;6819;50.886;4.332;2022-12-18T15:05:45;28.58;;;11.13;;
13493;SDS011;6819;50.886;4.332;2022-12-18T15:08:31;28.35;;;11.48;;
13493;SDS011;6819;50.886;4.332;2022-12-18T15:11:00;25.23;;;12.10;;
13493;SDS011;6819;50.886;4.332;2022-12-18T15:13:26;31.55;;;11.75;;
13493;SDS011;6819;50.886;4.332;2022-12-18T15:15:52;27.17;;;11.27;;
13493;SDS011;6819;50.886;4.332;2022-12-18T15:18:32;26.67;;;10.70;;
13493;SDS011;6819;50.886;4.332;2022-12-18T15:21:06;26.13;;;10.82;;
13493;SDS011;6819;50.886;4.332;2022-12-18T15:23:38;25.90;;;12.05;;
13493;SDS011;6819;50.886;4.332;2022-12-18T15:26:11;25.33;;;11.32;;
13493;SDS011;6819;50.886;4.332;2022-12-18T15:33:37;29.90;;;11.80;;
13493;SDS011;6819;50.886;4.332;2022-12-18T15:36:04;23.13;;;9.50;;
13493;SDS011;6819;50.886;4.332;2022-12-18T15:38:30;29.23;;;11.25;;
13493;SDS011;6819;50.886;4.332;2022-12-18T15:40:56;27.23;;;10.60;;
13493;SDS011;6819;50.886;4.332;2022-12-18T15:43:23;23.92;;;11.00;;
13493;SDS011;6819;50.886;4.332;2022-12-18T15:46:14;29.20;;;12.02;;
13493;SDS011;6819;50.886;4.332;2022-12-18T15:48:42;24.13;;;9.80;;
13493;SDS011;6819;50.886;4.332;2022-12-18T15:51:29;24.45;;;10.70;;
13493;SDS011;6819;50.886;4.332;2022-12-18T15:53:55;25.90;;;10.63;;
13493;SDS011;6819;50.886;4.332;2022-12-18T15:56:22;28.33;;;11.13;;
13493;SDS011;6819;50.886;4.332;2022-12-18T15:59:11;29.58;;;11.18;;
13493;SDS011;6819;50.886;4.332;2022-12-18T16:01:37;33.25;;;10.93;;
13493;SDS011;6819;50.886;4.332;2022-12-18T16:04:03;24.02;;;9.50;;
13493;SDS011;6819;50.886;4.332;2022-12-18T16:06:29;22.88;;;10.20;;
13493;SDS011;6819;50.886;4.332;2022-12-18T16:08:56;27.98;;;10.85;;
13493;SDS011;6819;50.886;4.332;2022-12-18T16:11:26;23.95;;;10.65;;
13493;SDS011;6819;50.886;4.332;2022-12-18T16:16:31;30.83;;;11.73;;
13493;SDS011;6819;50.886;4.332;2022-12-18T16:18:57;24.85;;;10.82;;
13493;SDS011;6819;50.886;4.332;2022-12-18T16:21:23;24.30;;;10.38;;
13493;SDS011;6819;50.886;4.332;2022-12-18T16:23:49;21.73;;;9.90;;
13493;SDS011;6819;50.886;4.332;2022-12-18T16:26:15;26.08;;;10.30;;
13493;SDS011;6819;50.886;4.332;2022-12-18T16:28:41;26.80;;;10.55;;
13493;SDS011;6819;50.886;4.332;2022-12-18T16:31:07;22.60;;;11.20;;
13493;SDS011;6819;50.886;4.332;2022-12-18T16:33:33;26.38;;;11.55;;
13493;SDS011;6819;50.886;4.332;2022-12-18T16:35:59;24.02;;;10.25;;
13493;SDS011;6819;50.886;4.332;2022-12-18T16:38:25;25.92;;;11.10;;
13493;SDS011;6819;50.886;4.332;2022-12-18T16:40:51;32.35;;;12.25;;
13493;SDS011;6819;50.886;4.332;2022-12-18T16:43:36;25.13;;;10.23;;
13493;SDS011;6819;50.886;4.332;2022-12-18T16:46:02;24.83;;;10.20;;
13493;SDS011;6819;50.886;4.332;2022-12-18T16:48:28;27.38;;;10.95;;
13493;SDS011;6819;50.886;4.332;2022-12-18T16:51:01;27.50;;;9.65;;
13493;SDS011;6819;50.886;4.332;2022-12-18T16:53:27;26.88;;;9.30;;
13493;SDS011;6819;50.886;4.332;2022-12-18T16:55:54;27.50;;;10.45;;
13493;SDS011;6819;50.886;4.332;2022-12-18T16:58:20;24.77;;;10.20;;
13493;SDS011;6819;50.886;4.332;2022-12-18T17:00:46;26.92;;;11.15;;
13493;SDS011;6819;50.886;4.332;2022-12-18T17:03:12;26.20;;;10.70;;
13493;SDS011;6819;50.886;4.332;2022-12-18T17:05:38;29.00;;;10.95;;
13493;SDS011;6819;50.886;4.332;2022-12-18T17:08:04;29.20;;;10.18;;
13493;SDS011;6819;50.886;4.332;2022-12-18T17:10:30;30.88;;;13.25;;
13493;SDS011;6819;50.886;4.332;2022-12-18T17:12:56;26.52;;;14.23;;
13493;SDS011;6819;50.886;4.332;2022-12-18T17:15:22;26.65;;;12.35;;
13493;SDS011;6819;50.886;4.332;2022-12-18T17:17:48;23.58;;;10.45;;
13493;SDS011;6819;50.886;4.332;2022-12-18T17:20:14;24.83;;;10.80;;
13493;SDS011;6819;50.886;4.332;2022-12-18T17:22:40;23.90;;;10.30;;
13493;SDS011;6819;50.886;4.332;2022-12-18T17:25:07;24.10;;;10.90;;
13493;SDS011;6819;50.886;4.332;2022-12-18T17:27:33;33.03;;;11.68;;
13493;SDS011;6819;50.886;4.332;2022-12-18T17:29:59;25.33;;;11.10;;
13493;SDS011;6819;50.886;4.332;2022-12-18T17:32:25;27.27;;;10.25;;
13493;SDS011;6819;50.886;4.332;2022-12-18T17:34:51;28.08;;;11.15;;
13493;SDS011;6819;50.886;4.332;2022-12-18T17:37:17;25.80;;;10.10;;
13493;SDS011;6819;50.886;4.332;2022-12-18T17:39:43;27.48;;;10.23;;
13493;SDS011;6819;50.886;4.332;2022-12-18T17:42:09;29.95;;;10.50;;
13493;SDS011;6819;50.886;4.332;2022-12-18T17:44:35;25.95;;;10.77;;
13493;SDS011;6819;50.886;4.332;2022-12-18T17:47:01;26.10;;;11.20;;
13493;SDS011;6819;50.886;4.332;2022-12-18T17:49:28;28.70;;;11.38;;
13493;SDS011;6819;50.886;4.332;2022-12-18T17:51:54;24.73;;;10.13;;
13493;SDS011;6819;50.886;4.332;2022-12-18T17:54:20;23.55;;;10.63;;
13493;SDS011;6819;50.886;4.332;2022-12-18T17:56:46;27.88;;;10.77;;
13493;SDS011;6819;50.886;4.332;2022-12-18T17:59:12;25.75;;;11.02;;
13493;SDS011;6819;50.886;4.332;2022-12-18T18:01:39;24.05;;;10.98;;
13493;SDS011;6819;50.886;4.332;2022-12-18T18:04:05;26.83;;;11.38;;
13493;SDS011;6819;50.886;4.332;2022-12-18T18:06:31;36.38;;;13.18;;
13493;SDS011;6819;50.886;4.332;2022-12-18T18:08:57;28.55;;;11.48;;
13493;SDS011;6819;50.886;4.332;2022-12-18T18:11:23;27.40;;;11.30;;
13493;SDS011;6819;50.886;4.332;2022-12-18T18:14:16;25.03;;;10.57;;
13493;SDS011;6819;50.886;4.332;2022-12-18T18:16:44;28.98;;;10.48;;
13493;SDS011;6819;50.886;4.332;2022-12-18T18:19:11;25.33;;;9.93;;
13493;SDS011;6819;50.886;4.332;2022-12-18T18:21:39;25.63;;;10.95;;
13493;SDS011;6819;50.886;4.332;2022-12-18T18:24:05;25.83;;;10.70;;
13493;SDS011;6819;50.886;4.332;2022-12-18T18:26:32;24.27;;;10.55;;
13493;SDS011;6819;50.886;4.332;2022-12-18T18:28:59;27.45;;;10.93;;
13493;SDS011;6819;50.886;4.332;2022-12-18T18:31:26;28.40;;;11.60;;
13493;SDS011;6819;50.886;4.332;2022-12-18T18:33:52;26.65;;;11.23;;
13493;SDS011;6819;50.886;4.332;2022-12-18T18:36:18;25.25;;;10.82;;
13493;SDS011;6819;50.886;4.332;2022-12-18T18:38:44;28.27;;;10.52;;
13493;SDS011;6819;50.886;4.332;2022-12-18T18:41:10;28.63;;;10.88;;
13493;SDS011;6819;50.886;4.332;2022-12-18T18:43:36;23.58;;;10.55;;
13493;SDS011;6819;50.886;4.332;2022-12-18T18:46:03;37.13;;;11.68;;
13493;SDS011;6819;50.886;4.332;2022-12-18T18:48:33;29.85;;;10.98;;
13493;SDS011;6819;50.886;4.332;2022-12-18T18:51:03;34.42;;;12.05;;
13493;SDS011;6819;50.886;4.332;2022-12-18T18:53:30;24.67;;;11.02;;
13493;SDS011;6819;50.886;4.332;2022-12-18T18:55:57;28.90;;;12.07;;
13493;SDS011;6819;50.886;4.332;2022-12-18T18:58:23;29.00;;;11.52;;
13493;SDS011;6819;50.886;4.332;2022-12-18T19:00:56;24.50;;;11.32;;
13493;SDS011;6819;50.886;4.332;2022-12-18T19:03:22;29.58;;;11.63;;
13493;SDS011;6819;50.886;4.332;2022-12-18T19:05:53;27.23;;;12.30;;
13493;SDS011;6819;50.886;4.332;2022-12-18T19:08:20;28.00;;;10.45;;
13493;SDS011;6819;50.886;4.332;2022-12-18T19:10:46;30.77;;;12.25;;
13493;SDS011;6819;50.886;4.332;2022-12-18T19:13:12;24.23;;;11.70;;
13493;SDS011;6819;50.886;4.332;2022-12-18T19:15:50;24.20;;;11.07;;
13493;SDS011;6819;50.886;4.332;2022-12-18T19:18:16;35.40;;;12.32;;
13493;SDS011;6819;50.886;4.332;2022-12-18T19:20:42;29.25;;;11.90;;
13493;SDS011;6819;50.886;4.332;2022-12-18T19:23:08;29.90;;;13.45;;
13493;SDS011;6819;50.886;4.332;2022-12-18T19:25:38;31.70;;;12.63;;
13493;SDS011;6819;50.886;4.332;2022-12-18T19:28:04;26.63;;;11.82;;
13493;SDS011;6819;50.886;4.332;2022-12-18T19:30:30;27.25;;;11.45;;
13493;SDS011;6819;50.886;4.332;2022-12-18T19:32:57;35.85;;;13.95;;
13493;SDS011;6819;50.886;4.332;2022-12-18T19:35:23;33.10;;;12.40;;
13493;SDS011;6819;50.886;4.332;2022-12-18T19:37:49;30.98;;;15.32;;
13493;SDS011;6819;50.886;4.332;2022-12-18T19:40:15;28.90;;;12.63;;
13493;SDS011;6819;50.886;4.332;2022-12-18T19:42:41;29.13;;;12.20;;
13493;SDS011;6819;50.886;4.332;2022-12-18T19:45:07;29.27;;;12.18;;
13493;SDS011;6819;50.886;4.332;2022-12-18T19:47:33;32.60;;;11.48;;
13493;SDS011;6819;50.886;4.332;2022-12-18T19:49:59;29.80;;;12.40;;
13493;SDS011;6819;50.886;4.332;2022-12-18T19:52:25;27.98;;;12.07;;
13493;SDS011;6819;50.886;4.332;2022-12-18T19:54:51;31.55;;;12.00;;
13493;SDS011;6819;50.886;4.332;2022-12-18T19:57:17;28.98;;;12.45;;
13493;SDS011;6819;50.886;4.332;2022-12-18T19:59:43;26.02;;;11.93;;
13493;SDS011;6819;50.886;4.332;2022-12-18T20:02:11;28.75;;;11.77;;
13493;SDS011;6819;50.886;4.332;2022-12-18T20:04:38;28.30;;;11.65;;
13493;SDS011;6819;50.886;4.332;2022-12-18T20:07:04;25.55;;;10.85;;
13493;SDS011;6819;50.886;4.332;2022-12-18T20:09:30;29.75;;;11.60;;
13493;SDS011;6819;50.886;4.332;2022-12-18T20:11:56;28.98;;;12.38;;
13493;SDS011;6819;50.886;4.332;2022-12-18T20:14:22;28.88;;;11.32;;
13493;SDS011;6819;50.886;4.332;2022-12-18T20:16:49;27.58;;;11.70;;
13493;SDS011;6819;50.886;4.332;2022-12-18T20:19:15;27.33;;;11.70;;
13493;SDS011;6819;50.886;4.332;2022-12-18T20:21:41;27.55;;;10.93;;
13493;SDS011;6819;50.886;4.332;2022-12-18T20:24:07;27.70;;;11.98;;
13493;SDS011;6819;50.886;4.332;2022-12-18T20:26:33;28.63;;;11.10;;
13493;SDS011;6819;50.886;4.332;2022-12-18T20:28:59;27.35;;;10.13;;
13493;SDS011;6819;50.886;4.332;2022-12-18T20:31:25;24.83;;;11.30;;
13493;SDS011;6819;50.886;4.332;2022-12-18T20:33:51;26.80;;;11.05;;
13493;SDS011;6819;50.886;4.332;2022-12-18T20:36:18;26.20;;;11.05;;
13493;SDS011;6819;50.886;4.332;2022-12-18T20:38:44;25.75;;;11.95;;
13493;SDS011;6819;50.886;4.332;2022-12-18T20:41:12;24.88;;;10.15;;
13493;SDS011;6819;50.886;4.332;2022-12-18T20:43:39;24.75;;;11.05;;
13493;SDS011;6819;50.886;4.332;2022-12-18T20:46:07;23.42;;;11.45;;
13493;SDS011;6819;50.886;4.332;2022-12-18T20:48:35;25.83;;;11.10;;
13493;SDS011;6819;50.886;4.332;2022-12-18T20:51:02;24.20;;;10.55;;
13493;SDS011;6819;50.886;4.332;2022-12-18T20:53:29;23.98;;;10.40;;
13493;SDS011;6819;50.886;4.332;2022-12-18T20:55:55;20.95;;;10.15;;
13493;SDS011;6819;50.886;4.332;2022-12-18T20:58:22;25.02;;;9.77;;
13493;SDS011;6819;50.886;4.332;2022-12-18T21:00:48;23.25;;;10.88;;
13493;SDS011;6819;50.886;4.332;2022-12-18T21:03:14;22.98;;;10.77;;
13493;SDS011;6819;50.886;4.332;2022-12-18T21:05:40;27.48;;;10.32;;
13493;SDS011;6819;50.886;4.332;2022-12-18T21:08:07;23.63;;;10.18;;
13493;SDS011;6819;50.886;4.332;2022-12-18T21:17:51;25.30;;;9.98;;
